Batumi International Airport
UGSB : rendu visible

Aérodrome :











RETROUVEZ-NOUS SUR...

 
LOGIN :

S'inscrire | Disclaimer

   EN    FR    IT 

 









Légende :    VFR   VFR Marginal   IFR   IFR Intensif   IFR Très Intensif
Visi : 
Plafond : 
>= 8 km
>= 3000ft
5 à 8 km
1000 à 3000 ft
1500m à 5 km
500 à 1000 ft
800 à 1500m
200 à 500 ft
< 800m
< 200 ft
Symboles :   Orages  Brouillard  Fortes neiges  Fortes précipitations  Vent > 20 kt







- Altitude de l'aérodrome : 105 ft
- Code IATA : BUS


UGSB - Batumi International

DERNIER METAR :
  • 270600Z 15007KT CAVOK 26/20 Q1016 R13/70D NOSIG

METARs EXPIRÉS :
  • 270530Z 14010KT CAVOK 25/19 Q1016 R13/70D NOSIG
  • 270500Z 14012KT CAVOK 24/19 Q1017 R13/70D NOSIG
  • 270430Z 13014KT 9999 FEW030 22/19 Q1017 R13/CLRD70 NOSIG
  • 270400Z 13013KT 9999 FEW030 22/18 Q1017 R13/70D NOSIG
  • 270330Z 13012KT 9999 FEW028 21/18 Q1017 R13/70D NOSIG

TAF TAF UGSB
Valide du 27 à 06h jusqu'au 28 à 06h UTC


270500Z 2706/2806 14012KT CAVOK TX29/2712Z TN21/2610Z
BECMG 2708/2710 29008KT
BECMG 2714/2715 23010KT 9999 FEW023 SCT070
BECMG 2718/2720 14011KT
FIR UGGG / Asie



MET'MAP, la Météo Aéronautique d'un coup d'oeil ! - Copyright ORBIFLY Décembre 2007 - Disclaimer

ORBIFLY MET'MAP TEAM :

Programmation & Développement : Alexandra Zaïnal
Conception & Développement : Baudouin d'Aumeries
Co-Programmation & Développement : Marc-Olivier Méhu
Soutien technique & logistique : Manuel Goepfert

Contact : metmap@orbifly.com




SOURCES & CREDITS :

   NOAA       Earth
Advisory